createdAt,value
2023-02-05T00:01:20.690Z,5.46
2023-02-05T00:05:23.527Z,5.53
2023-02-05T00:09:28.324Z,5.58
2023-02-05T00:13:32.401Z,5.61
2023-02-05T00:17:37.029Z,5.65
2023-02-05T00:21:39.829Z,5.69
2023-02-05T00:25:42.561Z,5.72
2023-02-05T00:29:46.702Z,5.68
2023-02-05T00:33:50.534Z,5.53
2023-02-05T00:37:54.331Z,5.57
2023-02-05T00:41:57.056Z,5.60
2023-02-05T00:46:01.930Z,5.57
2023-02-05T00:50:05.536Z,5.57
2023-02-05T00:54:08.444Z,5.57
2023-02-05T00:58:12.018Z,5.63
2023-02-05T01:02:17.317Z,5.66
2023-02-05T01:06:20.911Z,5.67
2023-02-05T01:10:23.777Z,5.74
2023-02-05T01:14:26.530Z,5.74
2023-02-05T01:18:31.076Z,5.79
2023-02-05T01:22:34.193Z,5.76
2023-02-05T01:26:36.975Z,5.77
2023-02-05T01:30:39.952Z,5.75
2023-02-05T01:34:44.333Z,5.70
2023-02-05T01:38:49.173Z,5.69
2023-02-05T01:42:52.114Z,5.57
2023-02-05T01:46:56.229Z,5.56
2023-02-05T01:51:05.214Z,5.61
2023-02-05T01:55:09.953Z,5.56
2023-02-05T01:59:16.958Z,5.56
2023-02-05T02:03:20.065Z,5.57
2023-02-05T02:07:25.891Z,5.61
2023-02-05T02:11:31.480Z,5.65
2023-02-05T02:15:34.977Z,5.66
2023-02-05T02:19:45.109Z,5.69
2023-02-05T02:24:02.528Z,5.74
2023-02-05T02:28:11.973Z,5.76
2023-02-05T02:32:19.349Z,5.77
2023-02-05T02:36:29.006Z,5.74
2023-02-05T02:40:38.871Z,5.75
2023-02-05T02:44:49.438Z,5.73
2023-02-05T02:48:57.305Z,5.70
2023-02-05T02:53:04.254Z,5.68
2023-02-05T02:57:09.560Z,5.71
2023-02-05T03:01:15.934Z,5.69
2023-02-05T03:05:23.179Z,5.69
2023-02-05T03:09:31.202Z,5.70
2023-02-05T03:13:34.178Z,5.73
2023-02-05T03:17:41.800Z,5.75
2023-02-05T03:21:48.527Z,5.75
2023-02-05T03:25:52.767Z,5.76
2023-02-05T03:30:00.682Z,5.78
2023-02-05T03:34:13.210Z,5.81
2023-02-05T03:38:39.831Z,5.83
2023-02-05T03:42:54.000Z,5.90
2023-02-05T03:47:03.446Z,5.93
2023-02-05T03:51:22.554Z,5.92
2023-02-05T03:55:33.042Z,5.98
2023-02-05T03:59:37.624Z,5.99
2023-02-05T04:03:41.968Z,6.07
2023-02-05T04:07:47.627Z,6.13
2023-02-05T04:11:50.834Z,6.19
2023-02-05T04:15:56.782Z,6.23
2023-02-05T04:20:00.076Z,6.26
2023-02-05T04:24:05.222Z,6.29
2023-02-05T04:28:10.584Z,6.30
2023-02-05T04:32:14.197Z,6.32
2023-02-05T04:36:17.149Z,6.36
2023-02-05T04:40:21.569Z,6.41
2023-02-05T04:44:24.276Z,6.44
2023-02-05T04:48:27.315Z,6.45
2023-02-05T04:52:32.526Z,6.48
2023-02-05T04:56:36.593Z,6.50
2023-02-05T05:00:39.332Z,6.52
2023-02-05T05:04:43.252Z,6.51
2023-02-05T05:08:46.488Z,6.55
2023-02-05T05:12:51.056Z,6.57
2023-02-05T05:16:53.811Z,6.63
2023-02-05T05:20:56.510Z,6.66
2023-02-05T05:24:59.205Z,6.65
2023-02-05T05:29:03.269Z,6.67
2023-02-05T05:33:06.309Z,6.72
2023-02-05T05:37:10.624Z,6.71
2023-02-05T05:41:37.617Z,6.73
2023-02-05T05:45:41.745Z,6.75
2023-02-05T05:49:44.600Z,6.77
2023-02-05T05:53:48.641Z,6.81
2023-02-05T05:57:51.416Z,6.83
2023-02-05T06:01:55.508Z,6.83
2023-02-05T06:05:58.395Z,6.86
2023-02-05T06:10:01.145Z,6.86
2023-02-05T06:14:03.981Z,6.86
2023-02-05T06:18:09.282Z,6.86
2023-02-05T06:22:12.050Z,6.85
2023-02-05T06:26:16.088Z,6.86
2023-02-05T06:30:19.167Z,6.87
2023-02-05T06:34:23.276Z,6.86
2023-02-05T06:38:26.010Z,6.86
2023-02-05T06:42:28.770Z,6.89
2023-02-05T06:46:31.633Z,6.92
2023-02-05T06:50:35.712Z,6.93
2023-02-05T06:54:38.870Z,6.96
2023-02-05T06:58:42.554Z,6.98
2023-02-05T07:02:46.512Z,6.97
2023-02-05T07:06:50.605Z,6.97
2023-02-05T07:10:53.349Z,7.04
2023-02-05T07:14:56.219Z,7.06
2023-02-05T07:18:59.083Z,7.07
2023-02-05T07:23:03.170Z,7.03
2023-02-05T07:27:05.896Z,6.98
2023-02-05T07:31:10.489Z,6.87
2023-02-05T07:35:13.318Z,6.80
2023-02-05T07:39:18.468Z,6.70
2023-02-05T07:43:24.908Z,6.58
2023-02-05T07:47:28.254Z,6.45
2023-02-05T07:51:31.177Z,6.39
2023-02-05T07:55:36.070Z,6.33
2023-02-05T07:59:38.965Z,6.22
2023-02-05T08:03:46.842Z,6.27
2023-02-05T08:07:49.987Z,6.18
2023-02-05T08:11:54.280Z,6.09
2023-02-05T08:15:57.093Z,6.11
2023-02-05T08:20:06.903Z,6.02
2023-02-05T08:24:10.405Z,6.04
2023-02-05T08:28:14.633Z,6.04
2023-02-05T08:32:17.426Z,6.00
2023-02-05T08:36:20.138Z,5.99
2023-02-05T08:53:27.329Z,6.14
2023-02-05T08:57:30.386Z,6.21
2023-02-05T09:01:33.158Z,6.18
2023-02-05T09:05:36.213Z,6.21
2023-02-05T09:09:40.466Z,6.27
2023-02-05T09:13:43.200Z,6.32
2023-02-05T09:17:46.241Z,6.31
2023-02-05T09:21:48.965Z,6.28
2023-02-05T09:25:53.170Z,6.22
2023-02-05T09:29:55.890Z,6.32
2023-02-05T09:33:58.763Z,6.26
2023-02-05T09:38:03.285Z,6.21
2023-02-05T09:42:17.114Z,6.26
2023-02-05T09:46:28.823Z,6.24
2023-02-05T09:50:32.046Z,6.32
2023-02-05T09:54:39.992Z,6.28
2023-02-05T09:58:47.337Z,6.31
2023-02-05T10:02:56.542Z,6.30
2023-02-05T10:07:14.784Z,6.30
2023-02-05T10:11:25.222Z,6.31
2023-02-05T10:15:46.142Z,6.34
2023-02-05T10:20:03.561Z,6.32
2023-02-05T10:24:31.688Z,6.39
2023-02-05T10:29:14.765Z,6.36
2023-02-05T10:33:29.130Z,6.41
2023-02-05T10:37:40.375Z,6.44
2023-02-05T10:41:47.946Z,6.50
2023-02-05T10:45:52.285Z,6.55
2023-02-05T10:50:02.122Z,6.57
2023-02-05T10:54:05.238Z,6.59
2023-02-05T10:58:36.731Z,6.64
2023-02-05T11:02:42.759Z,6.67
2023-02-05T11:06:50.511Z,6.70
2023-02-05T11:10:54.560Z,6.76
2023-02-05T11:14:59.826Z,6.80
2023-02-05T11:19:03.076Z,6.80
2023-02-05T11:23:10.322Z,6.87
2023-02-05T11:27:31.094Z,6.92
2023-02-05T11:31:36.481Z,6.96
2023-02-05T11:35:39.302Z,6.90
2023-02-05T11:39:45.116Z,6.87
2023-02-05T11:43:51.954Z,6.88
2023-02-05T11:47:55.230Z,6.98
2023-02-05T11:51:58.710Z,7.01
2023-02-05T11:56:22.009Z,7.03
2023-02-05T12:00:26.845Z,7.11
2023-02-05T12:04:48.189Z,7.15
2023-02-05T12:08:53.043Z,7.28
2023-02-05T12:13:06.187Z,7.43
2023-02-05T12:17:26.669Z,7.52
2023-02-05T12:21:41.443Z,7.63
2023-02-05T12:25:56.082Z,7.52
2023-02-05T12:30:12.562Z,7.51
2023-02-05T12:34:27.717Z,7.48
2023-02-05T12:38:48.871Z,7.47
2023-02-05T12:42:59.229Z,7.47
2023-02-05T12:47:15.552Z,7.47
2023-02-05T12:51:43.846Z,7.43
2023-02-05T12:56:05.140Z,7.42
2023-02-05T13:00:14.505Z,7.56
2023-02-05T13:04:26.046Z,7.66
2023-02-05T13:08:40.541Z,7.68
2023-02-05T13:12:48.355Z,7.75
2023-02-05T13:16:55.152Z,7.82
2023-02-05T13:21:22.219Z,7.89
2023-02-05T13:25:48.018Z,7.93
2023-02-05T13:29:53.936Z,8.00
2023-02-05T13:34:01.883Z,8.07
2023-02-05T13:38:23.733Z,7.98
2023-02-05T13:42:49.079Z,7.90
2023-02-05T13:47:18.038Z,7.86
2023-02-05T13:51:42.990Z,7.92
2023-02-05T13:56:10.354Z,7.96
2023-02-05T14:00:15.900Z,7.93
2023-02-05T14:04:24.007Z,7.93
2023-02-05T14:08:32.778Z,7.96
2023-02-05T14:12:39.273Z,8.01
2023-02-05T14:16:42.083Z,8.06
2023-02-05T14:20:45.638Z,8.03
2023-02-05T14:24:49.367Z,8.05
2023-02-05T14:28:54.086Z,8.05
2023-02-05T14:32:58.390Z,8.10
2023-02-05T14:37:01.445Z,8.13
2023-02-05T14:41:12.632Z,8.17
2023-02-05T14:45:19.050Z,8.13
2023-02-05T14:49:24.852Z,8.19
2023-02-05T14:53:29.595Z,8.14
2023-02-05T14:57:42.697Z,8.08
2023-02-05T15:01:50.100Z,8.00
2023-02-05T15:05:58.719Z,7.94
2023-02-05T15:10:04.746Z,7.95
2023-02-05T15:14:33.026Z,7.85
2023-02-05T15:18:41.282Z,7.83
2023-02-05T15:22:50.318Z,7.87
2023-02-05T15:26:57.372Z,7.81
2023-02-05T15:31:18.229Z,7.72
2023-02-05T15:35:24.982Z,7.68
2023-02-05T15:39:33.164Z,7.69
2023-02-05T15:43:35.940Z,7.71
2023-02-05T15:47:38.931Z,7.67
2023-02-05T15:51:43.407Z,7.58
2023-02-05T15:55:49.332Z,7.52
2023-02-05T15:59:53.996Z,7.44
2023-02-05T16:03:56.960Z,7.34
2023-02-05T16:08:02.964Z,7.34
2023-02-05T16:12:12.938Z,7.18
2023-02-05T16:16:24.216Z,7.11
2023-02-05T16:20:30.640Z,7.06
2023-02-05T16:24:39.065Z,7.02
2023-02-05T16:28:46.440Z,6.91
2023-02-05T16:32:49.899Z,6.82
2023-02-05T16:36:53.471Z,6.79
2023-02-05T16:41:01.191Z,6.75
2023-02-05T16:45:15.038Z,6.71
2023-02-05T16:49:31.105Z,6.66
2023-02-05T16:53:37.976Z,6.61
2023-02-05T16:57:42.480Z,6.62
2023-02-05T17:01:45.836Z,6.64
2023-02-05T17:05:56.299Z,6.65
2023-02-05T17:10:18.461Z,6.62
2023-02-05T17:14:31.142Z,6.60
2023-02-05T17:18:34.587Z,6.57
2023-02-05T17:22:37.665Z,6.53
2023-02-05T17:26:42.921Z,6.53
2023-02-05T17:30:49.232Z,6.53
2023-02-05T17:34:52.109Z,6.52
2023-02-05T17:38:55.247Z,6.49
2023-02-05T17:42:58.254Z,6.47
2023-02-05T17:47:02.800Z,6.44
2023-02-05T17:51:05.864Z,6.48
2023-02-05T17:55:14.277Z,6.42
2023-02-05T17:59:19.300Z,6.41
2023-02-05T18:03:23.614Z,6.44
2023-02-05T18:07:31.022Z,6.37
2023-02-05T18:11:34.069Z,6.37
2023-02-05T18:15:36.976Z,6.29
2023-02-05T18:19:41.201Z,6.18
2023-02-05T18:23:44.068Z,6.12
2023-02-05T18:27:47.979Z,6.00
2023-02-05T18:31:50.972Z,5.93
2023-02-05T18:35:55.615Z,5.88
2023-02-05T18:39:58.473Z,5.80
2023-02-05T18:44:01.343Z,5.77
2023-02-05T18:48:04.213Z,5.67
2023-02-05T18:52:09.243Z,5.65
2023-02-05T18:56:14.578Z,5.64
2023-02-05T19:00:17.733Z,5.56
2023-02-05T19:04:21.654Z,5.53
2023-02-05T19:08:25.881Z,5.51
2023-02-05T19:12:29.578Z,5.50
2023-02-05T19:16:34.379Z,5.43
2023-02-05T19:20:37.338Z,5.41
2023-02-05T19:24:43.036Z,5.38
2023-02-05T19:28:47.680Z,5.37
2023-02-05T19:32:50.548Z,5.33
2023-02-05T19:36:53.359Z,5.33
2023-02-05T19:40:57.563Z,5.29
2023-02-05T19:45:00.346Z,5.22
2023-02-05T19:49:04.904Z,5.23
2023-02-05T19:53:08.026Z,5.19
2023-02-05T19:57:12.249Z,5.15
2023-02-05T20:01:15.854Z,5.14
2023-02-05T20:05:18.922Z,5.13
2023-02-05T20:09:21.890Z,5.08
2023-02-05T20:13:28.972Z,5.08
2023-02-05T20:17:31.848Z,5.04
2023-02-05T20:21:35.019Z,5.02
2023-02-05T20:25:37.845Z,4.98
2023-02-05T20:29:59.475Z,4.92
2023-02-05T20:34:02.944Z,4.82
2023-02-05T20:38:05.865Z,4.79
2023-02-05T20:42:10.471Z,4.76
2023-02-05T20:46:14.617Z,4.69
2023-02-05T20:50:17.681Z,4.61
2023-02-05T20:54:20.519Z,4.56
2023-02-05T20:58:23.410Z,4.51
2023-02-05T21:02:28.008Z,4.45
2023-02-05T21:06:33.015Z,4.41
2023-02-05T21:10:36.143Z,4.37
2023-02-05T21:14:39.393Z,4.37
2023-02-05T21:18:44.985Z,4.34
2023-02-05T21:22:47.810Z,4.33
2023-02-05T21:26:51.859Z,4.30
2023-02-05T21:31:01.869Z,4.26
2023-02-05T21:35:06.660Z,4.25
2023-02-05T21:39:11.032Z,4.21
2023-02-05T21:43:14.056Z,4.21
2023-02-05T21:47:16.929Z,4.19
2023-02-05T21:51:23.161Z,4.17
2023-02-05T21:55:26.819Z,4.13
2023-02-05T21:59:29.683Z,4.05
2023-02-05T22:03:32.441Z,4.04
2023-02-05T22:07:36.592Z,4.02
2023-02-05T22:11:40.417Z,3.92
2023-02-05T22:15:43.284Z,3.86
2023-02-05T22:19:46.103Z,3.78
2023-02-05T22:23:53.365Z,3.66
2023-02-05T22:27:56.491Z,3.67
2023-02-05T22:31:59.362Z,3.65
2023-02-05T22:36:02.414Z,3.60
2023-02-05T22:40:08.008Z,3.58
2023-02-05T22:44:12.299Z,3.59
2023-02-05T22:48:15.343Z,3.59
2023-02-05T22:52:18.167Z,3.55
2023-02-05T22:56:22.727Z,3.59
2023-02-05T23:00:25.699Z,3.58
2023-02-05T23:04:28.563Z,3.60
2023-02-05T23:08:31.440Z,3.59
2023-02-05T23:12:35.627Z,3.62
2023-02-05T23:16:41.174Z,3.66
2023-02-05T23:20:44.014Z,3.66
2023-02-05T23:24:47.066Z,3.67
2023-02-05T23:28:54.823Z,3.61
2023-02-05T23:32:57.695Z,3.56
2023-02-05T23:37:00.476Z,3.51
2023-02-05T23:41:03.660Z,3.45
2023-02-05T23:45:08.594Z,3.41
2023-02-05T23:49:11.652Z,3.35
2023-02-05T23:53:14.497Z,3.25
2023-02-05T23:57:17.279Z,3.12
